createdAt,value
2018-04-23T00:01:39.830Z,18.70
2018-04-23T00:04:08.867Z,18.70
2018-04-23T00:06:37.138Z,18.70
2018-04-23T00:09:06.152Z,18.70
2018-04-23T00:11:34.439Z,18.60
2018-04-23T00:14:03.508Z,18.70
2018-04-23T00:16:33.472Z,18.70
2018-04-23T00:19:02.508Z,18.90
2018-04-23T00:21:31.309Z,18.90
2018-04-23T00:23:59.690Z,19.00
2018-04-23T00:26:27.949Z,19.00
2018-04-23T00:28:56.970Z,19.00
2018-04-23T00:31:25.265Z,18.90
2018-04-23T00:33:54.281Z,18.80
2018-04-23T00:36:22.519Z,18.80
2018-04-23T00:38:50.790Z,18.80
2018-04-23T00:41:19.039Z,18.70
2018-04-23T00:43:47.325Z,18.60
2018-04-23T00:46:15.569Z,18.60
2018-04-23T00:48:43.855Z,18.60
2018-04-23T00:51:12.847Z,18.60
2018-04-23T00:53:41.148Z,18.50
2018-04-23T00:56:09.390Z,18.60
2018-04-23T00:58:37.655Z,18.60
2018-04-23T01:01:06.796Z,18.60
2018-04-23T01:03:35.073Z,18.50
2018-04-23T01:06:04.167Z,18.60
2018-04-23T01:08:33.770Z,18.60
2018-04-23T01:11:02.154Z,18.60
2018-04-23T01:13:30.401Z,18.70
2018-04-23T01:15:59.398Z,18.80
2018-04-23T01:18:27.657Z,18.70
2018-04-23T01:20:56.656Z,18.80
2018-04-23T01:23:25.706Z,18.80
2018-04-23T01:25:53.932Z,18.80
2018-04-23T01:28:22.187Z,18.80
2018-04-23T01:30:50.460Z,18.80
2018-04-23T01:33:18.700Z,18.80
2018-04-23T01:35:46.960Z,18.80
2018-04-23T01:38:15.244Z,18.80
2018-04-23T01:40:43.508Z,18.80
2018-04-23T01:43:12.507Z,18.70
2018-04-23T01:45:41.528Z,18.50
2018-04-23T01:48:09.802Z,18.50
2018-04-23T01:50:38.907Z,18.40
2018-04-23T01:53:08.023Z,18.40
2018-04-23T01:55:36.312Z,18.30
2018-04-23T01:58:05.314Z,18.30
2018-04-23T02:00:34.351Z,18.20
2018-04-23T02:03:02.620Z,18.20
2018-04-23T02:05:30.889Z,18.20
2018-04-23T02:07:59.183Z,18.20
2018-04-23T02:10:28.203Z,18.30
2018-04-23T02:12:56.448Z,18.30
2018-04-23T02:15:26.215Z,18.20
2018-04-23T02:17:55.334Z,18.30
2018-04-23T02:20:23.714Z,18.20
2018-04-23T02:25:21.565Z,18.20
2018-04-23T02:27:49.803Z,18.30
2018-04-23T02:30:18.098Z,18.30
2018-04-23T02:32:47.482Z,18.40
2018-04-23T02:35:15.749Z,18.40
2018-04-23T02:37:44.091Z,18.50
2018-04-23T02:40:13.132Z,18.60
2018-04-23T02:42:41.382Z,18.50
2018-04-23T02:45:10.400Z,18.60
2018-04-23T02:47:39.432Z,18.80
2018-04-23T02:50:07.672Z,18.60
2018-04-23T02:52:35.937Z,18.70
2018-04-23T02:55:04.213Z,18.70
2018-04-23T02:57:32.491Z,18.70
2018-04-23T03:00:00.778Z,18.80
2018-04-23T03:02:29.042Z,18.80
2018-04-23T03:04:57.287Z,18.80
2018-04-23T03:07:25.542Z,18.80
2018-04-23T03:09:53.770Z,18.80
2018-04-23T03:12:22.033Z,18.80
2018-04-23T03:14:50.272Z,18.80
2018-04-23T03:17:19.312Z,18.80
2018-04-23T03:19:47.543Z,18.70
2018-04-23T03:22:15.824Z,18.80
2018-04-23T03:24:44.057Z,18.80
2018-04-23T03:27:12.328Z,18.70
2018-04-23T03:29:41.334Z,18.70
2018-04-23T03:32:10.376Z,18.70
2018-04-23T03:34:38.656Z,18.70
2018-04-23T03:37:06.944Z,18.70
2018-04-23T03:39:35.193Z,18.70
2018-04-23T03:42:03.462Z,18.70
2018-04-23T03:44:31.718Z,18.80
2018-04-23T03:47:00.760Z,18.80
2018-04-23T03:49:29.013Z,18.70
2018-04-23T03:51:57.311Z,18.70
2018-04-23T03:54:25.559Z,18.70
2018-04-23T03:56:54.590Z,18.70
2018-04-23T03:59:22.837Z,18.60
2018-04-23T04:01:51.156Z,18.60
2018-04-23T04:04:20.168Z,18.50
2018-04-23T04:06:49.617Z,18.50
2018-04-23T04:09:17.920Z,18.50
2018-04-23T04:11:46.168Z,18.50
2018-04-23T04:14:33.083Z,18.50
2018-04-23T04:17:02.110Z,18.50
2018-04-23T04:19:30.369Z,18.40
2018-04-23T04:21:59.402Z,18.40
2018-04-23T04:24:27.745Z,18.30
2018-04-23T04:26:56.062Z,18.40
2018-04-23T04:29:25.218Z,18.30
2018-04-23T04:31:53.456Z,18.30
2018-04-23T04:34:22.495Z,18.30
2018-04-23T04:36:51.862Z,18.30
2018-04-23T04:39:20.195Z,18.30
2018-04-23T04:41:49.195Z,18.30
2018-04-23T04:44:17.449Z,18.20
2018-04-23T04:46:45.751Z,18.20
2018-04-23T04:49:14.793Z,18.20
2018-04-23T04:51:43.017Z,18.10
2018-04-23T04:54:11.343Z,18.10
2018-04-23T04:56:40.363Z,18.10
2018-04-23T04:59:08.686Z,18.00
2018-04-23T05:01:36.949Z,18.10
2018-04-23T05:04:05.232Z,18.10
2018-04-23T05:06:34.263Z,18.20
2018-04-23T05:09:02.606Z,18.20
2018-04-23T05:11:30.936Z,18.40
2018-04-23T05:13:59.242Z,18.50
2018-04-23T05:16:27.488Z,18.60
2018-04-23T05:18:56.547Z,18.80
2018-04-23T05:21:24.886Z,18.80
2018-04-23T05:23:53.960Z,19.20
2018-04-23T05:26:22.144Z,19.10
2018-04-23T05:28:50.424Z,19.30
2018-04-23T05:31:18.682Z,19.50
2018-04-23T05:33:46.922Z,19.70
2018-04-23T05:36:15.168Z,19.70
2018-04-23T05:38:43.414Z,19.80
2018-04-23T05:41:11.668Z,20.00
2018-04-23T05:43:39.956Z,20.10
2018-04-23T05:46:08.208Z,20.20
2018-04-23T05:48:36.439Z,20.20
2018-04-23T05:51:04.702Z,20.00
2018-04-23T05:53:32.958Z,19.90
2018-04-23T05:56:01.977Z,19.60
2018-04-23T05:58:30.269Z,19.60
2018-04-23T06:00:59.201Z,19.50
2018-04-23T06:03:27.439Z,19.50
2018-04-23T06:05:56.464Z,19.50
2018-04-23T06:08:24.694Z,19.50
2018-04-23T06:10:52.971Z,19.50
2018-04-23T06:13:21.327Z,19.50
2018-04-23T06:15:49.591Z,19.40
2018-04-23T06:18:17.843Z,19.50
2018-04-23T06:20:46.119Z,19.60
2018-04-23T06:23:14.366Z,19.60
2018-04-23T06:25:43.398Z,19.70
2018-04-23T06:28:11.670Z,19.70
2018-04-23T06:30:39.889Z,19.90
2018-04-23T06:33:08.141Z,20.00
2018-04-23T06:35:37.916Z,20.10
2018-04-23T06:38:06.145Z,20.10
2018-04-23T06:40:35.191Z,20.50
2018-04-23T06:43:03.556Z,20.40
2018-04-23T06:45:32.604Z,20.40
2018-04-23T06:48:00.865Z,20.40
2018-04-23T06:50:29.912Z,20.50
2018-04-23T06:52:58.164Z,20.40
2018-04-23T06:55:26.413Z,20.50
2018-04-23T06:57:54.673Z,20.50
2018-04-23T07:00:22.943Z,20.60
2018-04-23T07:02:51.211Z,20.70
2018-04-23T07:05:19.516Z,20.80
2018-04-23T07:07:47.901Z,20.90
2018-04-23T07:10:16.168Z,20.90
2018-04-23T07:12:44.469Z,20.80
2018-04-23T07:15:12.706Z,20.80
2018-04-23T07:17:41.042Z,20.90
2018-04-23T07:20:10.091Z,21.20
2018-04-23T07:22:38.369Z,21.20
2018-04-23T07:25:06.613Z,21.50
2018-04-23T07:30:04.593Z,22.00
2018-04-23T07:32:33.697Z,21.90
2018-04-23T07:35:02.032Z,21.90
2018-04-23T07:37:30.380Z,21.80
2018-04-23T07:39:58.631Z,21.70
2018-04-23T07:42:27.746Z,21.30
2018-04-23T07:44:56.760Z,21.20
2018-04-23T07:47:25.259Z,21.10
2018-04-23T07:49:54.361Z,21.10
2018-04-23T07:52:22.661Z,21.00
2018-04-23T07:54:50.909Z,21.20
2018-04-23T07:57:19.342Z,21.40
2018-04-23T07:59:47.757Z,21.40
2018-04-23T08:02:16.162Z,21.40
2018-04-23T08:04:44.504Z,21.30
2018-04-23T08:07:13.402Z,21.00
2018-04-23T08:09:42.419Z,20.40
2018-04-23T08:12:10.703Z,20.30
2018-04-23T08:14:38.947Z,20.20
2018-04-23T08:17:07.232Z,20.10
2018-04-23T08:19:35.559Z,20.10
2018-04-23T08:22:04.610Z,19.70
2018-04-23T08:24:32.940Z,19.70
2018-04-23T08:27:02.000Z,19.40
2018-04-23T08:29:30.263Z,19.40
2018-04-23T08:31:59.910Z,18.80
2018-04-23T08:34:28.952Z,18.60
2018-04-23T08:36:57.207Z,18.60
2018-04-23T08:39:25.545Z,18.50
2018-04-23T08:41:53.825Z,18.30
2018-04-23T08:44:22.208Z,18.10
2018-04-23T08:46:50.555Z,17.90
2018-04-23T08:49:18.827Z,17.80
2018-04-23T08:51:48.212Z,17.70
2018-04-23T08:54:16.484Z,17.60
2018-04-23T08:56:44.724Z,17.70
2018-04-23T08:59:13.738Z,17.80
2018-04-23T09:01:41.966Z,17.70
2018-04-23T09:04:10.231Z,17.90
2018-04-23T09:09:08.846Z,18.00
2018-04-23T09:11:37.838Z,18.10
2018-04-23T09:14:06.937Z,18.20
2018-04-23T09:16:35.980Z,18.20
2018-04-23T09:19:04.320Z,18.20
2018-04-23T09:21:32.565Z,18.30
2018-04-23T09:24:00.877Z,18.60
2018-04-23T09:26:29.134Z,18.90
2018-04-23T09:28:57.403Z,19.40
2018-04-23T09:31:26.412Z,19.80
2018-04-23T09:33:55.460Z,20.00
2018-04-23T09:36:23.786Z,19.90
2018-04-23T09:38:52.800Z,20.30
2018-04-23T09:41:21.874Z,20.90
2018-04-23T09:43:50.163Z,20.90
2018-04-23T09:46:18.431Z,21.40
2018-04-23T09:48:46.694Z,21.80
2018-04-23T09:51:15.768Z,22.60
2018-04-23T09:53:44.051Z,22.50
2018-04-23T09:56:12.366Z,22.40
2018-04-23T09:58:41.390Z,22.30
2018-04-23T10:01:16.045Z,21.80
2018-04-23T10:03:44.300Z,21.70
2018-04-23T10:06:12.614Z,21.50
2018-04-23T10:08:40.877Z,21.20
2018-04-23T10:11:09.141Z,21.20
2018-04-23T10:13:37.403Z,21.10
2018-04-23T10:16:05.718Z,20.90
2018-04-23T10:18:34.103Z,20.60
2018-04-23T10:21:02.438Z,20.20
2018-04-23T10:23:30.673Z,20.00
2018-04-23T10:25:58.935Z,19.90
2018-04-23T10:28:27.199Z,19.60
2018-04-23T10:30:56.263Z,19.20
2018-04-23T10:33:25.327Z,19.00
2018-04-23T10:35:54.419Z,18.90
2018-04-23T10:38:23.441Z,18.90
2018-04-23T10:43:22.967Z,18.60
2018-04-23T10:45:52.741Z,18.50
2018-04-23T10:48:20.999Z,18.50
2018-04-23T10:50:50.054Z,18.70
2018-04-23T10:53:18.394Z,18.70
2018-04-23T10:55:46.757Z,18.80
2018-04-23T10:58:15.074Z,18.90
2018-04-23T11:00:44.121Z,19.50
2018-04-23T11:03:12.363Z,19.40
2018-04-23T11:05:41.403Z,20.10
2018-04-23T11:08:09.662Z,20.00
2018-04-23T11:10:37.950Z,20.30
2018-04-23T11:13:06.203Z,20.50
2018-04-23T11:15:34.496Z,20.40
2018-04-23T11:18:02.763Z,20.60
2018-04-23T11:20:31.051Z,20.60
2018-04-23T11:22:59.322Z,20.80
2018-04-23T11:27:57.236Z,20.70
2018-04-23T11:30:25.525Z,20.70
2018-04-23T11:32:53.883Z,20.60
2018-04-23T11:35:22.141Z,20.50
2018-04-23T11:37:50.414Z,20.20
2018-04-23T11:40:18.761Z,20.00
2018-04-23T11:42:47.795Z,19.70
2018-04-23T11:45:16.058Z,19.70
2018-04-23T11:47:44.330Z,19.50
2018-04-23T11:50:14.106Z,19.60
2018-04-23T11:52:42.374Z,19.60
2018-04-23T11:55:11.473Z,19.90
2018-04-23T11:57:40.495Z,20.00
2018-04-23T12:00:08.745Z,20.00
2018-04-23T12:02:37.018Z,20.20
2018-04-23T12:05:05.268Z,20.30
2018-04-23T12:07:33.559Z,20.20
2018-04-23T12:10:01.820Z,20.30
2018-04-23T12:12:30.098Z,20.30
2018-04-23T12:14:59.619Z,20.00
2018-04-23T12:17:27.879Z,20.00
2018-04-23T12:19:56.229Z,19.80
2018-04-23T12:22:24.675Z,19.20
2018-04-23T12:24:52.979Z,19.10
2018-04-23T12:27:22.060Z,18.70
2018-04-23T12:29:50.327Z,18.60
2018-04-23T12:32:18.629Z,18.50
2018-04-23T12:34:46.919Z,18.40
2018-04-23T12:37:15.471Z,18.30
2018-04-23T12:39:43.779Z,18.30
2018-04-23T12:42:11.996Z,18.30
2018-04-23T12:44:40.270Z,18.30
2018-04-23T12:47:08.563Z,18.20
2018-04-23T12:49:36.831Z,18.00
2018-04-23T12:52:05.177Z,18.00
2018-04-23T12:54:33.448Z,17.90
2018-04-23T12:57:01.727Z,17.90
2018-04-23T12:59:30.026Z,18.00
2018-04-23T13:01:58.363Z,18.10
2018-04-23T13:04:26.684Z,18.30
2018-04-23T13:06:54.925Z,18.50
2018-04-23T13:09:23.228Z,18.90
2018-04-23T13:11:52.266Z,19.50
2018-04-23T13:14:20.531Z,19.40
2018-04-23T13:16:49.532Z,19.60
2018-04-23T13:19:17.811Z,19.60
2018-04-23T13:21:46.843Z,19.90
2018-04-23T13:24:15.195Z,19.90
2018-04-23T13:26:43.467Z,20.20
2018-04-23T13:29:12.503Z,20.40
2018-04-23T13:31:40.768Z,20.40
2018-04-23T13:34:09.081Z,20.60
2018-04-23T13:36:38.092Z,20.30
2018-04-23T13:39:07.132Z,20.00
2018-04-23T13:41:35.417Z,20.00
2018-04-23T13:44:03.747Z,20.20
2018-04-23T13:46:32.028Z,20.50
2018-04-23T13:49:00.349Z,20.50
2018-04-23T13:51:28.619Z,20.50
2018-04-23T13:53:57.738Z,20.70
2018-04-23T13:56:26.186Z,20.90
2018-04-23T13:58:54.556Z,21.10
2018-04-23T14:01:22.852Z,21.20
2018-04-23T14:03:51.118Z,21.00
2018-04-23T14:06:20.151Z,20.70
2018-04-23T14:08:48.427Z,20.60
2018-04-23T14:11:17.624Z,20.50
2018-04-23T14:13:46.638Z,20.70
2018-04-23T14:16:15.677Z,20.70
2018-04-23T14:18:43.927Z,20.70
2018-04-23T14:21:12.991Z,20.80
2018-04-23T14:23:41.249Z,20.70
2018-04-23T14:26:09.526Z,20.80
2018-04-23T14:28:37.936Z,20.80
2018-04-23T14:31:06.216Z,20.70
2018-04-23T14:33:34.470Z,20.40
2018-04-23T14:36:03.753Z,20.00
2018-04-23T14:38:32.067Z,19.90
2018-04-23T14:41:00.500Z,19.90
2018-04-23T14:43:28.813Z,19.90
2018-04-23T14:45:57.083Z,20.00
2018-04-23T14:48:25.479Z,20.00
2018-04-23T14:50:53.779Z,20.00
2018-04-23T14:53:22.055Z,20.00
2018-04-23T14:55:50.313Z,20.00
2018-04-23T14:58:19.358Z,20.00
2018-04-23T15:00:47.633Z,20.00
2018-04-23T15:03:15.947Z,20.10
2018-04-23T15:05:44.205Z,19.90
2018-04-23T15:08:12.458Z,19.70
2018-04-23T15:10:40.811Z,19.60
2018-04-23T15:13:09.105Z,19.50
2018-04-23T15:15:37.384Z,19.20
2018-04-23T15:18:05.658Z,19.00
2018-04-23T15:20:33.997Z,19.00
2018-04-23T15:23:02.307Z,19.00
2018-04-23T15:25:30.662Z,19.00
2018-04-23T15:27:58.931Z,19.00
2018-04-23T15:30:27.210Z,19.00
2018-04-23T15:32:55.512Z,18.90
2018-04-23T15:35:23.775Z,18.90
2018-04-23T15:37:52.880Z,18.90
2018-04-23T15:40:21.904Z,18.70
2018-04-23T15:42:50.171Z,18.70
2018-04-23T15:45:19.222Z,18.70
2018-04-23T15:47:47.522Z,18.70
2018-04-23T15:50:15.787Z,18.60
2018-04-23T15:52:44.162Z,18.50
2018-04-23T15:55:12.483Z,18.50
2018-04-23T15:57:40.789Z,18.40
2018-04-23T16:00:09.130Z,18.30
2018-04-23T16:02:37.553Z,18.20
2018-04-23T16:05:05.832Z,18.20
2018-04-23T16:07:34.177Z,18.20
2018-04-23T16:10:03.251Z,18.00
2018-04-23T16:12:32.319Z,18.00
2018-04-23T16:15:01.454Z,18.00
2018-04-23T16:17:30.525Z,17.90
2018-04-23T16:19:59.829Z,18.00
2018-04-23T16:22:28.099Z,18.00
2018-04-23T16:24:56.400Z,18.00
2018-04-23T16:27:24.683Z,18.00
2018-04-23T16:29:53.006Z,18.10
2018-04-23T16:32:22.056Z,18.00
2018-04-23T16:34:50.318Z,17.90
2018-04-23T16:37:18.609Z,17.90
2018-04-23T16:39:46.922Z,17.90
2018-04-23T16:42:15.207Z,17.90
2018-04-23T16:44:43.448Z,17.90
2018-04-23T16:47:13.065Z,17.80
2018-04-23T16:49:42.208Z,17.90
2018-04-23T16:52:10.500Z,17.80
2018-04-23T16:54:38.926Z,17.90
2018-04-23T16:57:07.174Z,17.80
2018-04-23T16:59:35.495Z,17.70
2018-04-23T17:02:03.760Z,17.60
2018-04-23T17:04:32.061Z,17.70
2018-04-23T17:07:00.348Z,17.70
2018-04-23T17:09:28.672Z,17.60
2018-04-23T17:11:56.932Z,17.60
2018-04-23T17:14:25.237Z,17.60
2018-04-23T17:16:53.572Z,17.50
2018-04-23T17:19:21.946Z,17.50
2018-04-23T17:21:50.200Z,17.40
2018-04-23T17:24:18.695Z,17.40
2018-04-23T17:26:48.160Z,17.10
2018-04-23T17:29:16.435Z,17.30
2018-04-23T17:31:44.691Z,17.30
2018-04-23T17:34:12.964Z,17.30
2018-04-23T17:36:41.406Z,17.20
2018-04-23T17:39:10.449Z,17.20
2018-04-23T17:41:39.159Z,17.20
2018-04-23T17:44:08.171Z,17.20
2018-04-23T17:46:36.422Z,17.10
2018-04-23T17:49:05.589Z,17.10
2018-04-23T17:51:33.855Z,17.00
2018-04-23T17:54:02.161Z,17.00
2018-04-23T17:56:30.427Z,17.00
2018-04-23T17:58:58.787Z,17.00
2018-04-23T18:01:27.081Z,17.00
2018-04-23T18:06:25.259Z,16.90
2018-04-23T18:08:53.535Z,16.90
2018-04-23T18:11:21.805Z,16.90
2018-04-23T18:13:50.860Z,16.80
2018-04-23T18:16:19.136Z,16.70
2018-04-23T18:18:47.450Z,16.70
2018-04-23T18:21:15.723Z,16.70
2018-04-23T18:23:44.017Z,16.60
2018-04-23T18:26:12.262Z,16.50
2018-04-23T18:28:42.064Z,16.40
2018-04-23T18:31:11.115Z,16.40
2018-04-23T18:33:39.417Z,16.40
2018-04-23T18:36:07.900Z,16.40
2018-04-23T18:38:36.181Z,16.30
2018-04-23T18:41:04.454Z,16.30
2018-04-23T18:43:32.753Z,16.20
2018-04-23T18:46:01.053Z,16.10
2018-04-23T18:48:29.336Z,16.10
2018-04-23T18:50:57.715Z,16.00
2018-04-23T18:53:25.993Z,15.90
2018-04-23T18:55:54.308Z,15.80
2018-04-23T18:58:22.583Z,15.80
2018-04-23T19:00:50.862Z,15.70
2018-04-23T19:03:19.122Z,15.60
2018-04-23T19:05:47.419Z,15.60
2018-04-23T19:08:15.735Z,15.60
2018-04-23T19:10:44.025Z,15.60
2018-04-23T19:13:12.286Z,15.70
2018-04-23T19:15:41.332Z,15.70
2018-04-23T19:18:09.592Z,15.60
2018-04-23T19:20:38.649Z,15.70
2018-04-23T19:23:06.919Z,15.70
2018-04-23T19:25:35.232Z,15.70
2018-04-23T19:28:03.523Z,15.70
2018-04-23T19:30:31.810Z,15.70
2018-04-23T19:33:01.019Z,15.80
2018-04-23T19:35:29.775Z,15.60
2018-04-23T19:40:27.652Z,15.50
2018-04-23T19:42:55.939Z,15.60
2018-04-23T19:45:24.240Z,15.60
2018-04-23T19:47:53.377Z,15.60
2018-04-23T19:50:21.640Z,15.50
2018-04-23T19:52:50.708Z,15.50
2018-04-23T19:55:19.040Z,15.40
2018-04-23T19:57:47.279Z,15.50
2018-04-23T20:00:15.531Z,15.40
2018-04-23T20:02:44.606Z,15.40
2018-04-23T20:05:13.604Z,15.10
2018-04-23T20:07:42.679Z,15.30
2018-04-23T20:10:11.010Z,15.30
2018-04-23T20:12:39.287Z,15.20
2018-04-23T20:15:08.311Z,15.10
2018-04-23T20:17:36.588Z,15.10
2018-04-23T20:20:04.850Z,15.00
2018-04-23T20:22:33.156Z,14.90
2018-04-23T20:25:01.489Z,14.80
2018-04-23T20:27:29.834Z,14.80
2018-04-23T20:29:58.095Z,14.70
2018-04-23T20:32:26.384Z,14.60
2018-04-23T20:34:54.648Z,14.60
2018-04-23T20:37:23.707Z,14.40
2018-04-23T20:39:51.995Z,14.30
2018-04-23T20:42:20.307Z,14.40
2018-04-23T20:44:48.573Z,14.30
2018-04-23T20:47:17.296Z,14.20
2018-04-23T20:49:45.604Z,14.30
2018-04-23T20:52:13.883Z,14.20
2018-04-23T20:54:42.160Z,14.20
2018-04-23T20:57:10.430Z,14.10
2018-04-23T20:59:38.698Z,14.00
2018-04-23T21:02:06.975Z,14.10
2018-04-23T21:04:36.015Z,14.30
2018-04-23T21:07:04.309Z,14.20
2018-04-23T21:09:32.576Z,14.30
2018-04-23T21:12:00.841Z,14.40
2018-04-23T21:14:29.931Z,14.50
2018-04-23T21:16:58.196Z,14.40
2018-04-23T21:19:26.449Z,14.40
2018-04-23T21:21:54.704Z,14.50
2018-04-23T21:24:24.113Z,14.50
2018-04-23T21:29:22.032Z,14.50
2018-04-23T21:31:50.300Z,14.50
2018-04-23T21:34:18.588Z,14.50
2018-04-23T21:36:47.778Z,14.30
2018-04-23T21:39:16.031Z,14.30
2018-04-23T21:41:45.049Z,14.10
2018-04-23T21:44:13.311Z,14.10
2018-04-23T21:46:42.488Z,13.90
2018-04-23T21:49:10.731Z,13.90
2018-04-23T21:51:38.910Z,13.80
2018-04-23T21:54:07.928Z,13.70
2018-04-23T21:56:36.173Z,13.60
2018-04-23T21:59:04.617Z,13.70
2018-04-23T22:01:33.649Z,13.60
2018-04-23T22:04:01.921Z,13.50
2018-04-23T22:06:30.167Z,13.60
2018-04-23T22:08:59.199Z,13.50
2018-04-23T22:11:27.431Z,13.40
2018-04-23T22:13:55.688Z,13.40
2018-04-23T22:18:53.582Z,13.20
2018-04-23T22:21:21.880Z,13.20
2018-04-23T22:23:50.135Z,13.20
2018-04-23T22:26:18.390Z,13.10
2018-04-23T22:28:47.604Z,13.00
2018-04-23T22:31:15.854Z,12.90
2018-04-23T22:33:44.273Z,12.90
2018-04-23T22:36:12.508Z,12.90
2018-04-23T22:38:41.531Z,12.80
2018-04-23T22:41:10.567Z,12.90
2018-04-23T22:43:38.815Z,12.80
2018-04-23T22:46:07.833Z,12.80
2018-04-23T22:48:36.847Z,12.80
2018-04-23T22:51:05.869Z,12.80
2018-04-23T22:53:34.131Z,12.90
2018-04-23T22:56:03.211Z,12.80
2018-04-23T22:58:31.539Z,12.70
2018-04-23T23:00:59.769Z,12.80
2018-04-23T23:03:28.012Z,12.90
2018-04-23T23:05:56.276Z,12.80
2018-04-23T23:08:24.581Z,12.90
2018-04-23T23:10:53.607Z,12.90
2018-04-23T23:15:52.232Z,12.80
2018-04-23T23:18:20.458Z,12.70
2018-04-23T23:20:48.744Z,12.70
2018-04-23T23:23:16.995Z,12.70
2018-04-23T23:25:45.256Z,12.70
2018-04-23T23:28:13.494Z,12.60
2018-04-23T23:30:41.742Z,12.50
2018-04-23T23:33:10.748Z,12.40
2018-04-23T23:35:39.772Z,12.40
2018-04-23T23:38:08.009Z,12.30
2018-04-23T23:40:36.271Z,12.30
2018-04-23T23:43:05.285Z,12.20
2018-04-23T23:45:33.548Z,12.10
2018-04-23T23:48:02.770Z,12.10
2018-04-23T23:50:31.036Z,12.00
2018-04-23T23:53:00.039Z,11.90
2018-04-23T23:55:29.066Z,11.90
2018-04-23T23:57:57.306Z,11.80
